Time;durP1;ratioP1;P1;durP2;ratioP2;P2;SDS_P1;SDS_P2;PMS_P1;PMS_P2;Temp;Humidity;BMP_temperature;BMP_pressure;BME280_temperature;BME280_humidity;BME280_pressure;Samples;Min_cycle;Max_cycle;Signal;HPM_P1;HPM_P2
2022/03/19 00:02:21;;;;;;;93.00;38.00;;;;;;;-6.65;63.47;101448.08;104892;1271;75509;-30
2022/03/19 00:04:54;;;;;;;65.60;26.80;;;;;;;-6.69;63.17;101443.24;104870;1271;76410;-30
2022/03/19 00:07:24;;;;;;;58.10;22.50;;;;;;;-6.77;64.55;101443.52;104942;1271;74473;-30
2022/03/19 00:09:53;;;;;;;28.10;12.00;;;;;;;-6.88;64.85;101444.40;105048;1271;61084;-30
2022/03/19 00:12:22;;;;;;;30.50;13.20;;;;;;;-6.54;65.76;101446.85;104939;1271;62071;-30
2022/03/19 00:14:53;;;;;;;50.90;19.60;;;;;;;-5.64;64.43;101448.08;104925;1271;75475;-30
2022/03/19 00:17:22;;;;;;;36.80;17.70;;;;;;;-5.29;60.80;101447.67;104936;1271;74800;-30
2022/03/19 00:19:51;;;;;;;33.40;16.10;;;;;;;-5.39;59.45;101446.63;104960;1269;74290;-29
2022/03/19 00:22:23;;;;;;;47.40;24.10;;;;;;;-5.62;58.23;101446.25;104924;1271;61115;-30
2022/03/19 00:24:52;;;;;;;58.20;28.00;;;;;;;-5.87;58.95;101447.86;104871;1271;61037;-30
2022/03/19 00:27:21;;;;;;;87.10;36.10;;;;;;;-6.16;61.17;101452.41;104923;1271;73633;-30
2022/03/19 00:29:52;;;;;;;84.70;33.10;;;;;;;-6.50;62.77;101450.50;104868;1271;75811;-30
2022/03/19 00:32:21;;;;;;;64.90;26.80;;;;;;;-6.84;63.88;101447.38;104857;1271;73417;-31
2022/03/19 00:34:50;;;;;;;64.60;27.40;;;;;;;-7.08;63.09;101444.52;104920;1271;61038;-30
2022/03/19 00:37:19;;;;;;;64.90;25.80;;;;;;;-7.24;63.77;101447.23;104922;1271;61048;-30
2022/03/19 00:39:50;;;;;;;65.40;28.20;;;;;;;-7.37;65.16;101451.23;104910;1271;74944;-29
2022/03/19 00:42:19;;;;;;;89.60;30.30;;;;;;;-7.50;67.62;101452.86;104954;1271;75318;-30
2022/03/19 00:44:49;;;;;;;53.20;24.20;;;;;;;-7.19;67.95;101451.09;104889;1271;74476;-29
2022/03/19 00:47:18;;;;;;;92.50;36.90;;;;;;;-6.28;64.88;101449.74;104774;1274;61158;-29
2022/03/19 00:49:47;;;;;;;170.20;68.00;;;;;;;-5.87;62.81;101452.09;104905;1270;62027;-29
2022/03/19 00:52:17;;;;;;;176.10;69.60;;;;;;;-5.92;63.46;101452.15;104885;1271;75286;-29
2022/03/19 00:54:48;;;;;;;187.80;70.40;;;;;;;-6.10;63.42;101449.34;104845;1272;75957;-29
2022/03/19 00:57:17;;;;;;;134.80;50.00;;;;;;;-6.34;63.49;101446.02;104932;1271;73406;-29
2022/03/19 00:59:46;;;;;;;127.70;42.20;;;;;;;-6.58;63.54;101442.34;104941;1271;60946;-29
2022/03/19 01:02:15;;;;;;;104.10;39.70;;;;;;;-6.82;64.24;101441.69;104824;1271;61101;-29
2022/03/19 01:04:45;;;;;;;52.60;24.60;;;;;;;-7.02;62.25;101440.11;104961;1272;74537;-29
2022/03/19 01:07:25;;;;;;;46.90;21.20;;;;;;;-7.16;61.96;101435.33;105050;1271;76130;-29
2022/03/19 01:10:07;;;;;;;47.50;19.60;;;;;;;-7.29;61.70;101432.41;104862;1271;74374;-29
2022/03/19 01:12:56;;;;;;;44.70;17.70;;;;;;;-7.41;62.28;101432.89;104647;1271;63078;-29
2022/03/19 01:15:45;;;;;;;24.50;10.20;;;;;;;-7.30;63.00;101431.19;104710;1271;62186;-28
2022/03/19 01:18:32;;;;;;;85.80;32.90;;;;;;;-6.29;62.61;101434.31;104812;1271;73985;-29
2022/03/19 01:21:02;;;;;;;70.60;31.00;;;;;;;-5.80;62.00;101434.33;104900;1271;76007;-29
2022/03/19 01:23:31;;;;;;;70.30;28.90;;;;;;;-5.93;62.08;101432.50;105011;1271;74413;-29
2022/03/19 01:26:01;;;;;;;70.90;28.70;;;;;;;-6.25;62.19;101432.08;105031;1271;61043;-29
2022/03/19 01:28:31;;;;;;;67.70;28.90;;;;;;;-6.53;62.08;101424.91;105040;1271;61400;-29
2022/03/19 01:31:00;;;;;;;31.20;14.10;;;;;;;-6.77;62.82;101427.81;104904;1271;75699;-29
2022/03/19 01:33:30;;;;;;;29.30;12.20;;;;;;;-7.00;64.80;101428.17;105151;1271;74999;-29
2022/03/19 01:36:00;;;;;;;25.50;9.70;;;;;;;-7.21;65.17;101429.08;104994;1271;73021;-29
2022/03/19 01:38:29;;;;;;;29.10;11.20;;;;;;;-7.41;65.12;101431.19;104814;1271;61167;-29
2022/03/19 01:41:00;;;;;;;36.90;18.90;;;;;;;-7.58;64.77;101433.05;104897;1271;61076;-28
2022/03/19 01:43:29;;;;;;;35.00;14.40;;;;;;;-7.70;62.78;101431.14;104732;1274;75655;-28
2022/03/19 01:45:59;;;;;;;39.20;16.20;;;;;;;-7.22;63.46;101428.73;104831;1274;75797;-28
2022/03/19 01:48:29;;;;;;;58.90;21.20;;;;;;;-6.27;63.24;101430.80;104915;1271;74810;-29
2022/03/19 01:50:59;;;;;;;65.70;27.50;;;;;;;-5.96;61.61;101429.55;104804;1271;61292;-29
2022/03/19 01:53:29;;;;;;;48.10;21.90;;;;;;;-6.06;61.21;101431.86;104937;1271;63807;-29
2022/03/19 01:56:00;;;;;;;48.90;21.00;;;;;;;-6.29;61.29;101432.80;104874;1271;75298;-28
2022/03/19 01:58:36;;;;;;;41.20;17.80;;;;;;;-6.57;61.58;101430.55;104867;1271;76090;-29
2022/03/19 02:01:05;;;;;;;33.20;14.40;;;;;;;-6.82;61.81;101430.05;104893;1271;74450;-31
2022/03/19 02:03:35;;;;;;;29.40;13.10;;;;;;;-7.05;62.07;101433.44;104899;1271;62122;-28
2022/03/19 02:06:06;;;;;;;28.60;12.20;;;;;;;-7.29;62.36;101435.95;104896;1271;61015;-29
2022/03/19 02:08:37;;;;;;;32.00;12.40;;;;;;;-7.50;62.87;101440.38;104915;1271;75702;-28
2022/03/19 02:11:26;;;;;;;17.80;6.00;;;;;;;-7.72;63.25;101437.50;104636;1271;77032;-29
2022/03/19 02:13:56;;;;;;;10.70;4.40;;;;;;;-7.62;64.23;101439.49;104863;1271;74346;-28
2022/03/19 02:16:27;;;;;;;13.70;5.90;;;;;;;-6.76;64.44;101441.86;105049;1271;61051;-29
2022/03/19 02:19:02;;;;;;;24.30;9.90;;;;;;;-6.31;62.83;101443.08;104984;1271;61048;-29
2022/03/19 02:21:42;;;;;;;24.10;10.50;;;;;;;-6.44;63.11;101441.71;104915;1271;75574;-29
2022/03/19 02:26:59;;;;;;;28.60;11.30;;;;;;;-7.14;63.60;101442.45;104783;1271;73360;-29
2022/03/19 02:29:29;;;;;;;16.90;8.30;;;;;;;-7.45;63.80;101444.59;104824;1271;62011;-28
2022/03/19 02:32:06;;;;;;;20.20;8.70;;;;;;;-7.72;63.95;101447.61;104875;1271;61006;-29
2022/03/19 02:34:37;;;;;;;20.70;9.70;;;;;;;-7.97;64.10;101448.02;104820;1271;75345;-29
2022/03/19 02:37:06;;;;;;;25.50;9.10;;;;;;;-8.16;64.32;101449.39;104760;1271;75950;-28
2022/03/19 02:39:36;;;;;;;11.50;6.50;;;;;;;-7.92;65.89;101451.17;104908;1271;74111;-28
2022/03/19 02:42:06;;;;;;;30.10;13.60;;;;;;;-7.04;65.06;101449.02;104823;1271;61136;-29
2022/03/19 02:44:36;;;;;;;41.30;17.70;;;;;;;-6.65;64.23;101447.05;104727;1271;61159;-29
2022/03/19 02:47:07;;;;;;;31.60;14.20;;;;;;;-6.74;64.29;101446.64;105035;1271;74962;-29
2022/03/19 02:49:36;;;;;;;25.60;14.40;;;;;;;-6.97;63.87;101442.78;104767;1274;76124;-29
2022/03/19 02:52:06;;;;;;;33.60;17.00;;;;;;;-7.22;64.48;101442.06;104953;1274;74436;-29
2022/03/19 02:54:35;;;;;;;28.30;12.80;;;;;;;-7.47;65.02;101442.32;104897;1271;62076;-29
2022/03/19 02:57:04;;;;;;;25.70;11.90;;;;;;;-7.72;65.73;101443.05;104901;1271;61775;-29
2022/03/19 02:59:34;;;;;;;26.90;11.70;;;;;;;-8.01;66.65;101439.95;104983;1271;75564;-29
2022/03/19 03:02:05;;;;;;;26.90;11.30;;;;;;;-8.29;67.71;101441.71;104829;1271;74223;-28
2022/03/19 03:04:34;;;;;;;18.60;8.10;;;;;;;-8.11;68.91;101436.73;104801;1271;74419;-29
2022/03/19 03:07:05;;;;;;;33.50;15.30;;;;;;;-7.24;67.88;101435.59;104748;1271;61243;-29
2022/03/19 03:09:34;;;;;;;38.30;16.80;;;;;;;-6.87;66.60;101436.31;104843;1271;61794;-29
2022/03/19 03:12:24;;;;;;;33.60;16.60;;;;;;;-6.98;66.38;101439.88;104871;1271;76543;-29
2022/03/19 03:14:55;;;;;;;38.00;17.00;;;;;;;-7.25;66.90;101435.55;104918;1271;75795;-28
2022/03/19 03:17:25;;;;;;;48.10;19.60;;;;;;;-7.54;68.42;101437.72;105083;1271;74542;-29
2022/03/19 03:20:12;;;;;;;29.30;13.20;;;;;;;-7.77;68.92;101436.83;104914;1271;61122;-29
2022/03/19 03:22:44;;;;;;;40.20;17.00;;;;;;;-7.96;68.72;101436.40;104748;1274;61152;-29
2022/03/19 03:25:15;;;;;;;38.20;16.20;;;;;;;-8.17;70.14;101440.09;104080;1271;1003892;-28
2022/03/19 03:27:46;;;;;;;23.70;7.80;;;;;;;-8.31;71.33;101441.32;104899;1271;76006;-28
2022/03/19 03:30:18;;;;;;;26.30;12.30;;;;;;;-7.58;70.24;101447.54;104795;1271;74777;-29
2022/03/19 03:32:49;;;;;;;35.60;16.80;;;;;;;-6.96;68.25;101447.04;104807;1271;60972;-28
2022/03/19 03:35:25;;;;;;;39.10;17.20;;;;;;;-6.92;68.17;101447.66;104949;1271;62363;-29
2022/03/19 03:37:57;;;;;;;37.60;15.70;;;;;;;-7.12;68.41;101447.44;104823;1271;76313;-29
2022/03/19 03:40:26;;;;;;;31.30;14.20;;;;;;;-7.37;68.35;101446.35;104902;1271;75996;-29
2022/03/19 03:42:56;;;;;;;23.00;11.60;;;;;;;-7.59;68.14;101449.55;104947;1271;74222;-29
2022/03/19 03:45:30;;;;;;;29.80;11.90;;;;;;;-7.83;67.80;101453.86;104746;1271;62276;-29
2022/03/19 03:47:59;;;;;;;31.50;12.70;;;;;;;-8.05;68.18;101459.20;104641;1271;61178;-28
2022/03/19 03:50:42;;;;;;;20.80;10.60;;;;;;;-8.30;69.59;101465.60;104910;1271;74383;-30
2022/03/19 03:53:12;;;;;;;15.60;8.20;;;;;;;-8.09;70.18;101467.15;104857;1271;74971;-29
2022/03/19 03:55:47;;;;;;;26.30;12.70;;;;;;;-7.20;68.49;101469.13;104907;1271;73384;-29
2022/03/19 03:58:16;;;;;;;48.00;21.50;;;;;;;-6.89;67.39;101471.92;104954;1270;61268;-29
2022/03/19 04:00:46;;;;;;;37.20;19.00;;;;;;;-6.95;67.29;101469.17;105009;1271;62099;-29
2022/03/19 04:03:19;;;;;;;;;;;;;;;-7.17;67.57;101472.10;104709;1271;75281;-29
2022/03/19 04:05:50;;;;;;;;;;;;;;;-7.42;67.65;101470.30;104972;1271;74817;-29
2022/03/19 04:08:19;;;;;;;;;;;;;;;-7.68;68.74;101470.86;104889;1271;74411;-29
2022/03/19 04:10:48;;;;;;;;;;;;;;;-7.86;69.32;101472.30;105128;1271;62260;-29
2022/03/19 04:13:18;;;;;;;;;;;;;;;-8.03;67.25;101471.75;105164;1271;61047;-28
2022/03/19 04:15:47;;;;;;;;;;;;;;;-8.20;69.00;101470.84;104914;1271;75377;-28
2022/03/19 04:18:16;;;;;;;;;;;;;;;-7.77;70.37;101474.98;104974;1271;75993;-31
2022/03/19 04:20:45;;;;;;;;;;;;;;;-7.03;68.52;101474.38;104934;1271;74110;-31
2022/03/19 04:23:14;;;;;;;;;;;;;;;-6.93;66.70;101475.84;105059;1271;61286;-31
2022/03/19 04:25:44;;;;;;;;;;;;;;;-7.13;66.25;101476.95;105053;1271;61109;-30
2022/03/19 04:28:13;;;;;;;;;;;;;;;-7.37;66.24;101482.48;104833;1271;75520;-30
2022/03/19 04:30:43;;;;;;;;;;;;;;;-7.59;66.63;101480.63;104954;1271;74844;-29
2022/03/19 04:33:17;;;;;;;;;;;;;;;-7.79;66.97;101477.25;104914;1271;74404;-31
2022/03/19 04:38:39;;;;;;;;;;;;;;;-8.10;67.95;101480.78;104941;1271;61347;-28
2022/03/19 04:41:08;;;;;;;;;;;;;;;-8.04;67.19;101481.48;104915;1274;75653;-29
2022/03/19 04:43:41;;;;;;;;;;;;;;;-7.19;66.69;101486.38;104939;1271;74976;-29
2022/03/19 04:46:14;;;;;;;;;;;;;;;-6.59;65.53;101484.73;104907;1271;73782;-29
2022/03/19 04:48:45;;;;;;;;;;;;;;;-6.56;65.15;101488.54;104928;1271;61118;-29
2022/03/19 04:51:17;;;;;;;;;;;;;;;-6.76;65.31;101492.55;104857;1271;63434;-29
2022/03/19 04:53:50;;;;;;;;;;;;;;;-6.99;65.51;101494.07;104699;1271;75579;-29
2022/03/19 04:56:22;;;;;;;;;;;;;;;-7.14;66.28;101493.63;104912;1271;75050;-29
2022/03/19 04:58:54;;;;;;;;;;;;;;;-7.23;66.89;101497.90;104747;1271;73581;-29
2022/03/19 05:01:30;;;;;;;;;;;;;;;-7.30;67.10;101495.84;104834;1271;62256;-28
2022/03/19 05:04:03;;;;;;;;;;;;;;;-7.43;67.26;101497.80;104837;1271;62290;-29
2022/03/19 05:06:33;;;;;;;;;;;;;;;-7.56;68.09;101499.58;104970;1271;75342;-28
2022/03/19 05:11:53;;;;;;;;;;;;;;;-7.73;68.04;101503.60;105132;1271;74234;-28
2022/03/19 05:14:22;;;;;;;;;;;;;;;-6.99;67.90;101505.54;104753;1274;61941;-28
2022/03/19 05:16:56;;;;;;;;;;;;;;;-6.11;66.57;101508.84;104800;1271;61975;-29
2022/03/19 05:19:25;;;;;;;;;;;;;;;-5.82;65.85;101510.59;104941;1269;75539;-29
2022/03/19 05:22:01;;;;;;;;;;;;;;;-5.76;65.39;101509.56;104819;1271;74813;-29
2022/03/19 05:24:41;;;;;;;;;;;;;;;-5.82;66.18;101511.92;104892;1271;74388;-29
2022/03/19 05:27:17;;;;;;;;;;;;;;;-5.89;65.86;101513.27;104915;1271;61120;-29
2022/03/19 05:29:52;;;;;;;;;;;;;;;-5.94;66.94;101513.01;104799;1271;61628;-28
2022/03/19 05:32:36;;;;;;;;;;;;;;;-5.97;66.65;101513.60;104900;1271;75293;-28
2022/03/19 05:35:13;;;;;;;;;;;;;;;-5.92;66.85;101516.62;105141;1271;76040;-29
2022/03/19 05:38:00;;;;;;;;;;;;;;;-5.83;66.95;101516.83;105067;1274;74178;-29
2022/03/19 05:40:31;;;;;;;;;;;;;;;-5.75;67.17;101515.34;105162;1271;62652;-29
2022/03/19 05:43:00;;;;;;;;;;;;;;;-5.65;66.89;101517.95;104913;1274;61790;-28
2022/03/19 05:45:30;;;;;;;;;;;;;;;-5.53;66.36;101524.00;105015;1271;75497;-29
2022/03/19 05:47:59;;;;;;;;;;;;;;;-5.42;66.61;101525.10;104912;1271;74755;-29
2022/03/19 05:50:35;;;;;;;;;;;;;;;-5.31;65.92;101520.47;104885;1271;73279;-29
2022/03/19 05:53:09;;;;;;;;;;;;;;;-5.17;65.66;101525.52;104750;1274;61659;-28
2022/03/19 05:55:38;;;;;;;;;;;;;;;-5.06;65.36;101525.10;104931;1271;60996;-30
2022/03/19 05:58:08;;;;;;;;;;;;;;;-5.01;65.77;101524.18;104939;1271;74734;-28
2022/03/19 06:00:38;;;;;;;;;;;;;;;-4.93;65.50;101523.52;104963;1271;75629;-30
2022/03/19 06:03:07;;;;;;;;;;;;;;;-4.85;64.82;101523.35;104934;1271;74919;-28
2022/03/19 06:05:37;;;;;;;;;;;;;;;-4.77;64.97;101524.37;104895;1271;61697;-28
2022/03/19 06:08:06;;;;;;;;;;;;;;;-4.68;65.28;101525.08;104963;1271;62224;-28
2022/03/19 06:10:42;;;;;;;;;;;;;;;-4.56;64.89;101529.04;104803;1272;74527;-28
2022/03/19 06:13:17;;;;;;;;;;;;;;;-4.44;64.77;101525.55;104934;1271;76001;-28
2022/03/19 06:15:52;;;;;;;;;;;;;;;-4.30;65.13;101525.31;105014;1271;74191;-28
2022/03/19 06:18:22;;;;;;;;;;;;;;;-4.15;63.67;101527.30;104839;1271;62076;-28
2022/03/19 06:20:51;;;;;;;;;;;;;;;-4.01;62.75;101523.66;104863;1271;61861;-28
2022/03/19 06:23:20;;;;;;;;;;;;;;;-3.91;63.51;101527.05;104904;1271;75236;-28
2022/03/19 06:25:50;;;;;;;;;;;;;;;-3.77;62.96;101529.67;104812;1272;75170;-29
2022/03/19 06:28:19;;;;;;;;;;;;;;;-3.62;63.33;101531.46;104828;1271;73125;-28
2022/03/19 06:30:48;;;;;;;;;;;;;;;-3.45;62.59;101529.36;105155;1271;61146;-30
2022/03/19 06:33:19;;;;;;;;;;;;;;;-3.28;62.00;101526.39;105156;1271;61185;-28
2022/03/19 06:38:40;;;;;;;;;;;;;;;-2.86;61.50;101526.83;104894;1274;76002;-28
2022/03/19 06:41:12;;;;;;;;;;;;;;;-2.53;60.30;101530.67;104830;1272;75488;-28
2022/03/19 06:43:43;;;;;;;;;;;;;;;-2.09;59.51;101536.44;104825;1272;61079;-28
2022/03/19 06:46:12;;;;;;;;;;;;;;;-1.75;59.20;101536.26;104873;1271;60989;-28
2022/03/19 06:48:42;;;;;;;;;;;;;;;-1.40;58.17;101542.19;104924;1271;75735;-28
2022/03/19 06:51:12;;;;;;;;;;;;;;;-1.08;58.37;101541.58;104885;1271;76029;-28
2022/03/19 06:53:45;;;;;;;;;;;;;;;-0.78;57.36;101543.29;105023;1271;74372;-28
2022/03/19 06:56:15;;;;;;;;;;;;;;;-0.54;56.14;101548.17;105131;1271;61392;-28
2022/03/19 06:58:44;;;;;;;;;;;;;;;-0.29;54.32;101547.27;105010;1271;61107;-28
2022/03/19 07:01:16;;;;;;;;;;;;;;;-0.03;51.85;101548.02;104935;1271;75328;-28
2022/03/19 07:03:46;;;;;;;;;;;;;;;0.22;51.07;101550.80;105142;1271;75406;-28
2022/03/19 07:06:15;;;;;;;;;;;;;;;0.41;49.99;101551.34;105150;1271;74388;-28
2022/03/19 07:09:07;;;;;;;;;;;;;;;0.72;48.94;101549.45;105111;1271;61250;-28
2022/03/19 07:11:36;;;;;;;;;;;;;;;0.98;46.98;101549.77;105143;1271;61937;-28
2022/03/19 07:14:06;;;;;;;;;;;;;;;1.12;47.17;101550.61;105006;1271;74696;-28
2022/03/19 07:16:48;;;;;;;;;;;;;;;1.35;47.07;101552.60;104856;1271;76031;-28
2022/03/19 07:19:17;;;;;;;;;;;;;;;1.60;46.24;101556.11;104806;1271;74420;-28
2022/03/19 07:21:46;;;;;;;;;;;;;;;1.72;44.21;101556.23;104815;1271;61042;-29
2022/03/19 07:24:18;;;;;;;;;;;;;;;1.89;44.81;101556.83;104936;1271;61125;-28
2022/03/19 07:26:48;;;;;;;;;;;;;;;2.28;44.64;101557.45;104936;1270;74555;-29
2022/03/19 07:29:20;;;;;;;;;;;;;;;2.62;42.32;101562.70;105006;1271;75343;-29
2022/03/19 07:31:52;;;;;;;;;;;;;;;2.96;40.19;101562.05;104879;1271;74243;-29
2022/03/19 07:34:21;;;;;;;;;;;;;;;2.84;37.67;101560.10;104935;1271;62609;-31
2022/03/19 07:36:50;;;;;;;;;;;;;;;3.06;37.68;101559.04;105038;1271;61103;-29
2022/03/19 07:39:19;;;;;;;;;;;;;;;3.42;37.65;101561.92;105096;1271;75593;-29
2022/03/19 07:41:49;;;;;;;;;;;;;;;3.69;37.75;101560.39;105003;1271;74910;-29
2022/03/19 07:44:20;;;;;;;;;;;;;;;3.77;36.03;101559.77;104796;1271;73916;-29
2022/03/19 07:46:49;;;;;;;;;;;;;;;4.03;35.60;101560.63;104913;1271;61178;-29
2022/03/19 07:49:19;;;;;;;;;;;;;;;4.20;35.51;101561.77;104959;1271;61064;-29
2022/03/19 07:51:55;;;;;;;;;;;;;;;4.49;35.25;101561.66;104779;1274;75525;-29
2022/03/19 07:54:27;;;;;;;;;;;;;;;4.66;33.58;101556.94;104790;1271;75754;-29
2022/03/19 07:56:57;;;;;;;;;;;;;;;4.64;33.08;101553.34;104921;1271;74397;-29
2022/03/19 08:01:52;;;;;;;13.20;6.00;;;;;;;4.23;29.47;101553.64;101526;1309;601598;-29
2022/03/19 08:04:22;;;;;;;9.00;5.70;;;;;;;4.64;31.06;101555.77;104339;1285;61176;-28
2022/03/19 08:06:55;;;;;;;11.60;5.10;;;;;;;5.03;29.98;101559.21;104261;1286;61227;-29
2022/03/19 08:09:29;;;;;;;10.40;4.70;;;;;;;5.23;30.64;101556.27;104382;1284;75816;-28
2022/03/19 08:12:18;;;;;;;16.40;7.40;;;;;;;5.03;30.11;101557.66;104248;1284;77165;-29
2022/03/19 08:14:49;;;;;;;17.40;9.10;;;;;;;5.18;31.06;101561.70;104050;1282;362960;-29
2022/03/19 08:17:18;;;;;;;9.60;5.30;;;;;;;5.48;30.17;101559.58;104289;1283;61343;-27
2022/03/19 08:19:48;;;;;;;11.10;5.10;;;;;;;5.67;29.00;101560.58;104465;1283;62226;-27
2022/03/19 08:22:32;;;;;;;39.80;15.70;;;;;;;5.69;28.86;101558.95;104441;1283;73641;-28
2022/03/19 08:25:03;;;;;;;13.40;6.50;;;;;;;5.41;29.32;101559.04;104344;1283;76088;-27
2022/03/19 08:27:33;;;;;;;12.20;6.00;;;;;;;5.60;28.93;101557.08;104603;1276;73517;-27
2022/03/19 08:30:06;;;;;;;58.90;30.40;;;;;;;5.81;28.62;101556.83;104618;1275;61721;-27
2022/03/19 08:32:35;;;;;;;14.40;7.90;;;;;;;4.65;28.97;101549.04;104711;1275;61789;-28
2022/03/19 08:35:06;;;;;;;14.30;6.80;;;;;;;4.96;28.33;101544.36;104770;1274;74711;-28
2022/03/19 08:37:36;;;;;;;11.70;6.30;;;;;;;5.40;28.65;101538.71;104637;1277;76320;-27
2022/03/19 08:40:16;;;;;;;9.10;5.30;;;;;;;5.34;27.80;101535.73;104426;1276;73442;-27
2022/03/19 08:42:51;;;;;;;10.30;3.80;;;;;;;5.85;27.51;101540.71;104554;1276;61279;-28
2022/03/19 08:45:20;;;;;;;7.30;3.90;;;;;;;6.22;27.06;101536.81;104697;1276;62214;-28
2022/03/19 08:47:52;;;;;;;9.20;5.10;;;;;;;6.15;26.38;101536.30;104610;1276;74701;-28
2022/03/19 08:50:22;;;;;;;12.00;5.30;;;;;;;6.25;26.20;101536.56;104721;1276;75996;-28
2022/03/19 08:52:52;;;;;;;9.90;5.40;;;;;;;6.46;26.25;101531.59;104701;1277;73854;-28
2022/03/19 08:55:21;;;;;;;10.70;5.50;;;;;;;6.44;25.34;101533.53;104663;1277;62080;-28
2022/03/19 08:57:51;;;;;;;8.90;4.50;;;;;;;6.30;25.95;101534.70;104710;1276;62107;-28
2022/03/19 09:00:20;;;;;;;10.70;5.10;;;;;;;6.64;26.73;101533.89;104693;1276;74774;-28
2022/03/19 09:02:51;;;;;;;15.50;7.70;;;;;;;6.62;25.93;101531.17;104646;1278;75122;-28
2022/03/19 09:05:22;;;;;;;15.70;7.40;;;;;;;6.32;26.13;101530.35;104703;1276;74474;-28
2022/03/19 09:07:52;;;;;;;27.80;6.80;;;;;;;6.81;25.85;101532.77;104687;1276;61988;-28
2022/03/19 09:10:21;;;;;;;9.90;5.10;;;;;;;7.08;24.36;101529.64;104638;1276;60994;-28
2022/03/19 09:12:51;;;;;;;9.20;4.60;;;;;;;6.17;24.66;101530.10;104670;1276;73741;-28
2022/03/19 09:15:21;;;;;;;13.20;5.20;;;;;;;6.13;25.03;101530.95;104707;1276;75074;-27
2022/03/19 09:17:50;;;;;;;12.20;5.70;;;;;;;6.98;25.14;101528.70;104674;1276;74285;-28
2022/03/19 09:20:40;;;;;;;10.90;6.70;;;;;;;6.79;24.52;101535.38;104607;1276;63346;-27
2022/03/19 09:23:10;;;;;;;21.30;10.50;;;;;;;5.79;25.08;101528.27;104662;1276;61910;-28
2022/03/19 09:30:25;;;;;;;12.00;5.50;;;;;;;7.66;23.98;101540.27;104658;1276;75842;-28
2022/03/19 09:32:58;;;;;;;12.20;6.70;;;;;;;7.99;23.05;101537.60;104659;1276;72986;-28
2022/03/19 09:35:46;;;;;;;10.60;5.10;;;;;;;8.15;23.49;101538.11;104473;1277;61167;-28
2022/03/19 09:38:17;;;;;;;17.50;8.40;;;;;;;7.53;24.96;101536.84;104625;1276;61085;-28
2022/03/19 09:40:47;;;;;;;11.10;6.60;;;;;;;6.94;24.93;101537.80;104705;1276;73312;-28
2022/03/19 09:43:17;;;;;;;15.20;8.70;;;;;;;6.32;25.45;101538.13;104687;1276;74123;-28
2022/03/19 09:45:47;;;;;;;13.00;7.10;;;;;;;5.83;26.22;101533.70;104413;1276;71526;-28
2022/03/19 09:48:17;;;;;;;8.80;5.40;;;;;;;5.57;26.51;101541.98;104676;1276;61113;-28
2022/03/19 09:50:51;;;;;;;13.20;7.80;;;;;;;6.42;25.37;101545.27;104689;1276;61154;-28
2022/03/19 09:53:23;;;;;;;13.50;7.80;;;;;;;6.65;25.01;101538.88;104581;1278;72227;-28
2022/03/19 09:55:59;;;;;;;15.50;6.70;;;;;;;6.35;24.76;101542.20;104653;1276;73399;-29
2022/03/19 09:58:29;;;;;;;6.70;4.60;;;;;;;6.10;24.88;101537.41;104577;1276;71247;-28
2022/03/19 10:01:05;;;;;;;13.10;6.90;;;;;;;6.60;24.52;101537.95;104654;1276;61159;-28
2022/03/19 10:03:39;;;;;;;16.00;7.20;;;;;;;6.79;24.05;101532.82;104658;1276;62049;-28
2022/03/19 10:09:01;;;;;;;10.70;4.90;;;;;;;4.89;26.20;101525.73;104713;1276;75793;-29
2022/03/19 10:11:34;;;;;;;9.90;5.10;;;;;;;5.62;26.09;101532.08;104611;1276;73091;-29
2022/03/19 10:14:05;;;;;;;9.30;4.90;;;;;;;6.14;24.97;101533.86;104667;1276;61139;-29
2022/03/19 10:16:36;;;;;;;14.40;7.60;;;;;;;6.90;24.39;101532.53;104611;1276;61270;-29
2022/03/19 10:19:10;;;;;;;17.80;9.40;;;;;;;6.08;24.82;101532.59;104604;1276;73508;-29
2022/03/19 10:21:41;;;;;;;10.50;5.20;;;;;;;5.74;24.81;101530.42;104649;1276;74682;-29
2022/03/19 10:24:26;;;;;;;8.50;4.80;;;;;;;6.79;24.08;101532.30;104600;1276;72884;-28
2022/03/19 10:26:55;;;;;;;9.30;5.40;;;;;;;7.32;24.04;101531.76;104382;1276;61051;-28
2022/03/19 10:29:30;;;;;;;6.90;4.10;;;;;;;7.88;23.32;101535.67;104395;1277;61101;-29
2022/03/19 10:32:03;;;;;;;11.60;6.20;;;;;;;7.78;23.88;101530.45;104295;1276;72435;-28
2022/03/19 10:34:35;;;;;;;11.30;5.50;;;;;;;7.37;22.88;101532.27;104363;1277;74703;-28
2022/03/19 10:37:05;;;;;;;18.70;7.40;;;;;;;7.75;23.64;101533.12;104284;1276;72990;-28
2022/03/19 10:39:35;;;;;;;14.10;7.20;;;;;;;7.91;22.81;101528.48;104735;1273;61133;-29
2022/03/19 10:42:13;;;;;;;10.20;5.20;;;;;;;8.21;22.53;101528.25;104658;1273;61143;-28
2022/03/19 10:44:44;;;;;;;10.80;5.80;;;;;;;8.53;22.22;101522.21;104566;1273;71979;-28
2022/03/19 10:47:14;;;;;;;8.30;5.20;;;;;;;7.96;22.48;101522.09;104583;1273;74608;-28
2022/03/19 10:49:45;;;;;;;11.90;5.60;;;;;;;7.65;22.66;101523.88;104580;1273;70920;-28
2022/03/19 10:52:17;;;;;;;9.30;4.70;;;;;;;8.21;22.61;101517.52;104673;1273;60996;-28
2022/03/19 10:54:47;;;;;;;13.20;4.70;;;;;;;8.56;22.07;101514.34;104777;1273;61107;-28
2022/03/19 10:57:17;;;;;;;8.70;4.60;;;;;;;8.84;21.94;101510.45;104819;1273;73145;-28
2022/03/19 10:59:47;;;;;;;9.20;5.20;;;;;;;8.42;22.15;101504.54;105057;1273;75690;-28
2022/03/19 11:02:17;;;;;;;10.90;6.30;;;;;;;7.29;23.01;101504.36;105037;1273;72791;-28
2022/03/19 11:04:47;;;;;;;10.30;4.70;;;;;;;6.84;23.00;101500.91;104619;1274;61115;-28
2022/03/19 11:07:17;;;;;;;6.30;3.80;;;;;;;7.74;22.34;101503.41;105064;1271;61147;-28
2022/03/19 11:09:49;;;;;;;8.70;4.90;;;;;;;7.97;21.64;101497.48;105111;1272;73521;-28
2022/03/19 11:12:21;;;;;;;5.60;3.40;;;;;;;8.07;22.09;101496.30;104852;1273;73322;-28
2022/03/19 11:14:50;;;;;;;8.00;3.70;;;;;;;9.05;21.72;101490.45;104697;1273;70634;-28
2022/03/19 11:17:24;;;;;;;9.70;4.40;;;;;;;8.56;22.67;101489.36;104776;1273;61145;-28
2022/03/19 11:20:05;;;;;;;10.20;5.00;;;;;;;6.99;23.92;101487.05;104973;1273;61151;-28
2022/03/19 11:22:39;;;;;;;19.20;9.70;;;;;;;7.30;23.75;101486.00;104815;1273;71982;-28
2022/03/19 11:25:31;;;;;;;12.70;6.60;;;;;;;6.23;25.00;101481.23;104850;1273;72263;-28
2022/03/19 11:28:06;;;;;;;7.30;4.70;;;;;;;6.02;24.77;101484.30;104933;1272;70768;-29
2022/03/19 11:31:03;;;;;;;7.30;3.80;;;;;;;7.41;23.76;101483.95;105093;1273;61100;-29
2022/03/19 11:33:34;;;;;;;14.40;6.20;;;;;;;8.59;22.54;101480.13;104878;1273;61257;-31
2022/03/19 11:36:07;;;;;;;17.20;7.50;;;;;;;8.25;23.29;101472.55;104892;1273;71772;-27
2022/03/19 11:38:52;;;;;;;6.20;2.60;;;;;;;7.50;23.47;101472.13;105097;1273;73372;-30
2022/03/19 11:41:22;;;;;;;7.60;4.40;;;;;;;7.18;24.22;101467.36;105030;1273;72983;-29
2022/03/19 11:44:20;;;;;;;5.80;3.40;;;;;;;7.26;23.71;101466.45;104873;1273;61033;-30
2022/03/19 11:47:13;;;;;;;6.60;3.50;;;;;;;6.87;24.17;101463.38;105050;1273;60972;-29
2022/03/19 11:49:49;;;;;;;;;;;;;;;7.37;23.15;101468.72;105128;1273;73613;-29
2022/03/19 11:52:25;;;;;;;11.20;5.90;;;;;;;7.42;23.16;101471.51;105101;1273;74541;-31
2022/03/19 11:55:00;;;;;;;6.80;3.40;;;;;;;7.96;22.91;101467.11;105111;1273;73145;-31
2022/03/19 11:57:46;;;;;;;7.80;4.40;;;;;;;8.21;22.64;101463.88;104867;1273;61147;-29
2022/03/19 12:00:16;;;;;;;8.40;4.30;;;;;;;7.82;23.49;101460.10;104975;1273;61121;-31
2022/03/19 12:03:09;;;;;;;8.80;5.00;;;;;;;7.34;23.68;101458.78;104739;1273;73075;-29
2022/03/19 12:05:40;;;;;;;6.30;4.00;;;;;;;6.68;24.09;101453.02;104851;1273;75992;-29
2022/03/19 12:08:12;;;;;;;47.30;5.60;;;;;;;7.05;23.74;101455.45;105060;1273;73008;-29
2022/03/19 12:11:03;;;;;;;11.00;4.80;;;;;;;7.29;23.57;101455.10;104783;1273;61139;-29
2022/03/19 12:13:37;;;;;;;8.00;4.50;;;;;;;7.50;24.33;101454.86;105102;1273;60987;-29
2022/03/19 12:16:08;;;;;;;20.50;9.00;;;;;;;7.42;24.47;101452.85;104779;1273;73683;-29
2022/03/19 12:18:41;;;;;;;;;;;;;;;6.50;24.83;101448.46;105150;1273;74669;-29
2022/03/19 12:21:12;;;;;;;17.20;7.50;;;;;;;6.15;25.64;101445.02;104866;1273;71979;-29